KCLT/CLT METAR and TAF weather

Enter ICAO airport designator
Station Type Date Time Source
KCLT METAR 2021/05/14 06:52 UTC NOAA

KCLT 140652Z 34003KT 10SM CLR 07/06 A3023 RMK AO2 SLP236 T00670056


Station Type Date Time Source
KCLT Decoded METAR 2021/05/14 06:52 UTC NOAA

CHARLOTTE/DOUGLAS INTERNATIONAL , NC, United States (KCLT) 35-13N 80-57W 220M
May 14, 2021 - 02:52 AM EDT / 2021.05.14 0652 UTC
Wind: from the NNW (340 degrees) at 3 MPH (3 KT):0
Visibility: 10 mile(s):0
Sky conditions: clear
Temperature: 44.1 F (6.7 C)
Dew Point: 42.1 F (5.6 C)
Relative Humidity: 92%
Pressure (altimeter): 30.23 in. Hg (1023 hPa)
ob: KCLT 140652Z 34003KT 10SM CLR 07/06 A3023 RMK AO2 SLP236 T00670056
cycle: 7

Station Type Date Time Source
KCLT TAF 2021/05/14 06:33 UTC NOAA

TAF KCLT 140530Z 1406/1512 00000KT P6SM FEW250
FM141500 VRB03KT P6SM SCT250
FM141800 33006KT P6SM SCT100 BKN250
FM150000 02003KT P6SM SCT250

Example: see airport list